Leader — WCY8495 — position and weather

sailwx.info

Track history (hours):
 
Tides and Currents Weather Stations Pressure Air Temp Water Temp Dewpoint Dewpoint Depression Visibility Wind Speed Wind Dir Waves Ship Positions

Leader

Owner: Crowley Marine Services, SEATTLE, WA. More information available from US FCC via Universal Licensing System and Coast Guard Vessel Documentation Center.

Last reported at 2017-Dec-09 11:21 UTC. Time now 2017-Dec-12 14:16 UTC.
Position N 33°44' W 118°17'.

Length 30 m; draft 4.9 m.

Type: Tug. MMSI: 366760650.

Date/timePositionNaut miles runAvg speedWind from/ knotsBaromVisibWave heightAir tempDewpointWater temp
2017-Dec-09 11:21N 33°44' W 118°17'0 0.0
2017-Dec-09 10:50N 33°44' W 118°17'0 0.0
2017-Dec-09 10:11N 33°44' W 118°17'0 0.0
2017-Dec-09 09:48N 33°44' W 118°17'0 0.0
2017-Dec-09 09:28N 33°44' W 118°17'  
2017-Dec-04 01:05N 33°44' W 118°17'0 3.3
2017-Dec-04 00:58N 33°44' W 118°17'3 6.6
2017-Dec-04 00:29N 33°43' W 118°13'2 4.5
2017-Dec-03 23:58N 33°44' W 118°10'2 0.2
2017-Dec-03 10:56N 33°45' W 118°13'1 1.1
2017-Dec-03 10:25N 33°44' W 118°13'3 1.1
2017-Dec-03 07:33N 33°44' W 118°17'0 0.0
2017-Dec-03 07:26N 33°44' W 118°17'0 0.3
2017-Dec-03 07:00N 33°44' W 118°17'2 4.9
2017-Dec-03 06:30N 33°46' W 118°14'1 1.6
2017-Dec-03 05:50N 33°45' W 118°16'1 0.5
2017-Dec-03 03:09N 33°44' W 118°17'0 0.1
2017-Dec-03 03:00N 33°44' W 118°17'4 0.7
2017-Dec-02 21:57N 33°44' W 118°12'3 6.4
2017-Dec-02 21:24N 33°44' W 118°16'1 1.2
2017-Dec-02 20:44N 33°44' W 118°17'0 0.0
2017-Dec-02 20:30N 33°44' W 118°17'0 0.0
2017-Dec-02 20:00N 33°44' W 118°17'0 0.0
2017-Dec-02 19:30N 33°44' W 118°17'0 0.0
2017-Dec-02 19:00N 33°44' W 118°17'0 0.0
2017-Dec-02 18:30N 33°44' W 118°17'0 0.0
2017-Dec-02 17:52N 33°44' W 118°17'3 1.2
2017-Dec-02 15:16N 33°43' W 118°13'2 1.5
2017-Dec-02 14:08N 33°43' W 118°15'1 7.9
2017-Dec-02 14:00N 33°43' W 118°16'1 1.2
2017-Dec-02 13:04N 33°44' W 118°17'0 0.0
2017-Dec-02 12:35N 33°44' W 118°17'0 0.0
2017-Dec-02 12:30N 33°44' W 118°17'0 0.0
2017-Dec-02 08:34N 33°44' W 118°17'0 0.0
2017-Dec-02 08:29N 33°44' W 118°17'1 1.1
2017-Dec-02 07:59N 33°44' W 118°16'2 4.2
2017-Dec-02 07:30N 33°46' W 118°16'0 0.2
2017-Dec-02 06:59N 33°46' W 118°16'0 0.8
2017-Dec-02 06:30N 33°45' W 118°16'2 3.0
2017-Dec-02 05:58N 33°44' W 118°16'2 2.3
2017-Dec-02 05:04N 33°46' W 118°16'0 5.4
2017-Dec-02 05:00N 33°45' W 118°16'0 0.8
2017-Dec-02 04:30N 33°45' W 118°16'2 2.4
2017-Dec-02 03:51N 33°44' W 118°16'3 3.2
2017-Dec-02 02:52N 33°45' W 118°13'1 0.3
2017-Dec-02 00:32N 33°46' W 118°14'0 5.5
2017-Dec-02 00:27N 33°46' W 118°13'3 6.7
2017-Dec-02 00:00N 33°43' W 118°14'2 4.8
2017-Dec-01 23:30N 33°44' W 118°17'0 0.0
2017-Dec-01 23:00N 33°44' W 118°17'1 0.2
2017-Dec-01 19:50N 33°45' W 118°16'2 4.6
2017-Dec-01 19:26N 33°46' W 118°15'1 1.2
2017-Dec-01 18:24N 33°45' W 118°16'1 0.9
2017-Dec-01 17:09N 33°44' W 118°17'0 0.0
2017-Dec-01 16:27N 33°44' W 118°17'0 0.0
2017-Dec-01 14:59N 33°44' W 118°17'3 3.8
2017-Dec-01 14:07N 33°45' W 118°13'0 0.4
2017-Dec-01 13:58N 33°45' W 118°13'1 1.3
2017-Dec-01 13:30N 33°44' W 118°12'1 1.5
2017-Dec-01 12:50N 33°44' W 118°12'0 0.2
2017-Dec-01 12:29N 33°43' W 118°12'1 1.8
2017-Dec-01 12:00N 33°44' W 118°12'1 1.6
2017-Dec-01 11:30N 33°45' W 118°13'0 0.1
2017-Dec-01 11:00N 33°45' W 118°13'2 2.4
2017-Dec-01 10:23N 33°43' W 118°13'4 5.2
2017-Dec-01 09:42N 33°45' W 118°17'0 0.4
2017-Dec-01 09:18N 33°46' W 118°17'0 0.9
2017-Dec-01 09:00N 33°45' W 118°16'1 0.3
2017-Dec-01 06:11N 33°44' W 118°17'0 0.0
2017-Dec-01 05:41N 33°44' W 118°17'0 0.0
2017-Dec-01 05:29N 33°44' W 118°17'0 0.0
2017-Dec-01 04:41N 33°44' W 118°17'0 0.0
2017-Dec-01 04:30N 33°44' W 118°17'0 0.0
2017-Dec-01 04:00N 33°44' W 118°17'2 1.7
2017-Dec-01 02:40N 33°46' W 118°15'0 0.6
2017-Dec-01 02:30N 33°46' W 118°15'1 2.0
2017-Dec-01 02:00N 33°45' W 118°16'3 5.1
2017-Dec-01 01:29N 33°43' W 118°15'3 3.5
2017-Dec-01 00:45N 33°45' W 118°13'0 0.5
2017-Dec-01 00:30N 33°45' W 118°12'3 0.6
2017-Nov-30 18:19N 33°44' W 118°16'4 0.4
2017-Nov-30 10:02N 33°46' W 118°13'0 1.9
2017-Nov-30 10:00N 33°46' W 118°13'2 3.9
2017-Nov-30 09:30N 33°44' W 118°13'3 0.4
2017-Nov-30 01:51N 33°44' W 118°17'1 3.3
2017-Nov-30 01:30N 33°43' W 118°16'2 1.6
2017-Nov-30 00:14N 33°45' W 118°16'0 0.7
2017-Nov-29 23:58N 33°45' W 118°16'1 1.6
2017-Nov-29 23:30N 33°44' W 118°17'0 0.0
2017-Nov-29 23:00N 33°44' W 118°17'0 0.0
2017-Nov-29 22:30N 33°44' W 118°17'0 0.0
2017-Nov-29 22:00N 33°44' W 118°17'0 0.0
2017-Nov-29 21:30N 33°44' W 118°17'0 0.0
2017-Nov-29 21:00N 33°44' W 118°17'0 0.0
2017-Nov-29 20:30N 33°44' W 118°17'0 0.0
2017-Nov-29 20:00N 33°44' W 118°17'0 0.0
2017-Nov-29 19:30N 33°44' W 118°17'0 0.0
2017-Nov-29 19:00N 33°44' W 118°17'0 0.0
2017-Nov-29 18:30N 33°44' W 118°17'0 0.0
2017-Nov-29 18:00N 33°44' W 118°17'0 0.0
2017-Nov-29 17:30N 33°44' W 118°17'0 0.0
2017-Nov-29 16:43N 33°44' W 118°17'  
Track history (hours):
 
Tides and Currents Weather Stations Pressure Air Temp Water Temp Dewpoint Dewpoint Depression Visibility Wind Speed Wind Dir Waves Ship Positions

Leader

Owner: Crowley Marine Services, SEATTLE, WA. More information available from US FCC via Universal Licensing System and Coast Guard Vessel Documentation Center.

Last reported at 2017-Dec-09 11:21 UTC. Time now 2017-Dec-12 14:16 UTC.
Position N 33°44' W 118°17'.

Length 30 m; draft 4.9 m.

Type: Tug. MMSI: 366760650.

Date/timePositionNaut miles runAvg speedWind from/ knotsBaromVisibWave heightAir tempDewpointWater temp
2017-Dec-09 11:21N 33°44' W 118°17'0 0.0
2017-Dec-09 10:50N 33°44' W 118°17'0 0.0
2017-Dec-09 10:11N 33°44' W 118°17'0 0.0
2017-Dec-09 09:48N 33°44' W 118°17'0 0.0
2017-Dec-09 09:28N 33°44' W 118°17'  
2017-Dec-04 01:05N 33°44' W 118°17'0 3.3
2017-Dec-04 00:58N 33°44' W 118°17'3 6.6
2017-Dec-04 00:29N 33°43' W 118°13'2 4.5
2017-Dec-03 23:58N 33°44' W 118°10'2 0.2
2017-Dec-03 10:56N 33°45' W 118°13'1 1.1
2017-Dec-03 10:25N 33°44' W 118°13'3 1.1
2017-Dec-03 07:33N 33°44' W 118°17'0 0.0
2017-Dec-03 07:26N 33°44' W 118°17'0 0.3
2017-Dec-03 07:00N 33°44' W 118°17'2 4.9
2017-Dec-03 06:30N 33°46' W 118°14'1 1.6
2017-Dec-03 05:50N 33°45' W 118°16'1 0.5
2017-Dec-03 03:09N 33°44' W 118°17'0 0.1
2017-Dec-03 03:00N 33°44' W 118°17'4 0.7
2017-Dec-02 21:57N 33°44' W 118°12'3 6.4
2017-Dec-02 21:24N 33°44' W 118°16'1 1.2
2017-Dec-02 20:44N 33°44' W 118°17'0 0.0
2017-Dec-02 20:30N 33°44' W 118°17'0 0.0
2017-Dec-02 20:00N 33°44' W 118°17'0 0.0
2017-Dec-02 19:30N 33°44' W 118°17'0 0.0
2017-Dec-02 19:00N 33°44' W 118°17'0 0.0
2017-Dec-02 18:30N 33°44' W 118°17'0 0.0
2017-Dec-02 17:52N 33°44' W 118°17'3 1.2
2017-Dec-02 15:16N 33°43' W 118°13'2 1.5
2017-Dec-02 14:08N 33°43' W 118°15'1 7.9
2017-Dec-02 14:00N 33°43' W 118°16'1 1.2
2017-Dec-02 13:04N 33°44' W 118°17'0 0.0
2017-Dec-02 12:35N 33°44' W 118°17'0 0.0
2017-Dec-02 12:30N 33°44' W 118°17'0 0.0
2017-Dec-02 08:34N 33°44' W 118°17'0 0.0
2017-Dec-02 08:29N 33°44' W 118°17'1 1.1
2017-Dec-02 07:59N 33°44' W 118°16'2 4.2
2017-Dec-02 07:30N 33°46' W 118°16'0 0.2
2017-Dec-02 06:59N 33°46' W 118°16'0 0.8
2017-Dec-02 06:30N 33°45' W 118°16'2 3.0
2017-Dec-02 05:58N 33°44' W 118°16'2 2.3
2017-Dec-02 05:04N 33°46' W 118°16'0 5.4
2017-Dec-02 05:00N 33°45' W 118°16'0 0.8
2017-Dec-02 04:30N 33°45' W 118°16'2 2.4
2017-Dec-02 03:51N 33°44' W 118°16'3 3.2
2017-Dec-02 02:52N 33°45' W 118°13'1 0.3
2017-Dec-02 00:32N 33°46' W 118°14'0 5.5
2017-Dec-02 00:27N 33°46' W 118°13'3 6.7
2017-Dec-02 00:00N 33°43' W 118°14'2 4.8
2017-Dec-01 23:30N 33°44' W 118°17'0 0.0
2017-Dec-01 23:00N 33°44' W 118°17'1 0.2
2017-Dec-01 19:50N 33°45' W 118°16'2 4.6
2017-Dec-01 19:26N 33°46' W 118°15'1 1.2
2017-Dec-01 18:24N 33°45' W 118°16'1 0.9
2017-Dec-01 17:09N 33°44' W 118°17'0 0.0
2017-Dec-01 16:27N 33°44' W 118°17'0 0.0
2017-Dec-01 14:59N 33°44' W 118°17'3 3.8
2017-Dec-01 14:07N 33°45' W 118°13'0 0.4
2017-Dec-01 13:58N 33°45' W 118°13'1 1.3
2017-Dec-01 13:30N 33°44' W 118°12'1 1.5
2017-Dec-01 12:50N 33°44' W 118°12'0 0.2
2017-Dec-01 12:29N 33°43' W 118°12'1 1.8
2017-Dec-01 12:00N 33°44' W 118°12'1 1.6
2017-Dec-01 11:30N 33°45' W 118°13'0 0.1
2017-Dec-01 11:00N 33°45' W 118°13'2 2.4
2017-Dec-01 10:23N 33°43' W 118°13'4 5.2
2017-Dec-01 09:42N 33°45' W 118°17'0 0.4
2017-Dec-01 09:18N 33°46' W 118°17'0 0.9
2017-Dec-01 09:00N 33°45' W 118°16'1 0.3
2017-Dec-01 06:11N 33°44' W 118°17'0 0.0
2017-Dec-01 05:41N 33°44' W 118°17'0 0.0
2017-Dec-01 05:29N 33°44' W 118°17'0 0.0
2017-Dec-01 04:41N 33°44' W 118°17'0 0.0
2017-Dec-01 04:30N 33°44' W 118°17'0 0.0
2017-Dec-01 04:00N 33°44' W 118°17'2 1.7
2017-Dec-01 02:40N 33°46' W 118°15'0 0.6
2017-Dec-01 02:30N 33°46' W 118°15'1 2.0
2017-Dec-01 02:00N 33°45' W 118°16'3 5.1
2017-Dec-01 01:29N 33°43' W 118°15'3 3.5
2017-Dec-01 00:45N 33°45' W 118°13'0 0.5
2017-Dec-01 00:30N 33°45' W 118°12'3 0.6
2017-Nov-30 18:19N 33°44' W 118°16'4 0.4
2017-Nov-30 10:02N 33°46' W 118°13'0 1.9
2017-Nov-30 10:00N 33°46' W 118°13'2 3.9
2017-Nov-30 09:30N 33°44' W 118°13'3 0.4
2017-Nov-30 01:51N 33°44' W 118°17'1 3.3
2017-Nov-30 01:30N 33°43' W 118°16'2 1.6
2017-Nov-30 00:14N 33°45' W 118°16'0 0.7
2017-Nov-29 23:58N 33°45' W 118°16'1 1.6
2017-Nov-29 23:30N 33°44' W 118°17'0 0.0
2017-Nov-29 23:00N 33°44' W 118°17'0 0.0
2017-Nov-29 22:30N 33°44' W 118°17'0 0.0
2017-Nov-29 22:00N 33°44' W 118°17'0 0.0
2017-Nov-29 21:30N 33°44' W 118°17'0 0.0
2017-Nov-29 21:00N 33°44' W 118°17'0 0.0
2017-Nov-29 20:30N 33°44' W 118°17'0 0.0
2017-Nov-29 20:00N 33°44' W 118°17'0 0.0
2017-Nov-29 19:30N 33°44' W 118°17'0 0.0
2017-Nov-29 19:00N 33°44' W 118°17'0 0.0
2017-Nov-29 18:30N 33°44' W 118°17'0 0.0
2017-Nov-29 18:00N 33°44' W 118°17'0 0.0
2017-Nov-29 17:30N 33°44' W 118°17'0 0.0
2017-Nov-29 16:43N 33°44' W 118°17'  

Dump ship's entire track history